sensor_id;sensor_type;location;lat;lon;timestamp;pressure;altitude;pressure_sealevel;temperature;humidity
8627;BME280;4351;51.422;6.794;2023-01-26T00:01:49;101211.41;;;-0.37;100.00
8627;BME280;4351;51.422;6.794;2023-01-26T00:04:18;101191.94;;;-0.31;100.00
8627;BME280;4351;51.422;6.794;2023-01-26T00:06:46;101175.06;;;-0.22;100.00
8627;BME280;4351;51.422;6.794;2023-01-26T00:09:14;101173.44;;;-0.38;100.00
8627;BME280;4351;51.422;6.794;2023-01-26T00:11:42;101155.53;;;-0.14;100.00
8627;BME280;4351;51.422;6.794;2023-01-26T00:14:10;101150.38;;;-0.32;100.00
8627;BME280;4351;51.422;6.794;2023-01-26T00:16:38;101150.28;;;-0.21;100.00
8627;BME280;4351;51.422;6.794;2023-01-26T00:19:07;101150.31;;;-0.23;100.00
8627;BME280;4351;51.422;6.794;2023-01-26T00:21:36;101151.38;;;-0.44;100.00
8627;BME280;4351;51.422;6.794;2023-01-26T00:24:05;101146.97;;;-0.47;100.00
8627;BME280;4351;51.422;6.794;2023-01-26T00:26:33;101140.84;;;-0.54;100.00
8627;BME280;4351;51.422;6.794;2023-01-26T00:29:01;101134.59;;;-0.48;100.00
8627;BME280;4351;51.422;6.794;2023-01-26T00:31:29;101133.72;;;-0.50;100.00
8627;BME280;4351;51.422;6.794;2023-01-26T00:33:58;101129.34;;;-0.54;100.00
8627;BME280;4351;51.422;6.794;2023-01-26T00:36:26;101129.28;;;-0.45;100.00
8627;BME280;4351;51.422;6.794;2023-01-26T00:38:55;101123.13;;;-0.50;100.00
8627;BME280;4351;51.422;6.794;2023-01-26T00:41:23;101116.97;;;-0.52;100.00
8627;BME280;4351;51.422;6.794;2023-01-26T00:44:08;101108.13;;;-0.54;100.00
8627;BME280;4351;51.422;6.794;2023-01-26T00:46:36;101107.09;;;-0.33;100.00
8627;BME280;4351;51.422;6.794;2023-01-26T00:49:05;101097.41;;;-0.39;100.00
8627;BME280;4351;51.422;6.794;2023-01-26T00:51:33;101087.63;;;-0.35;100.00
8627;BME280;4351;51.422;6.794;2023-01-26T00:54:04;101086.75;;;-0.32;100.00
8627;BME280;4351;51.422;6.794;2023-01-26T00:56:32;101079.66;;;-0.30;100.00
8627;BME280;4351;51.422;6.794;2023-01-26T00:59:00;101084.13;;;-0.37;100.00
8627;BME280;4351;51.422;6.794;2023-01-26T01:01:28;101084.94;;;-0.30;100.00
8627;BME280;4351;51.422;6.794;2023-01-26T01:03:56;101090.28;;;-0.32;100.00
8627;BME280;4351;51.422;6.794;2023-01-26T01:06:25;101085.88;;;-0.35;100.00
8627;BME280;4351;51.422;6.794;2023-01-26T01:08:53;101076.81;;;-0.12;100.00
8627;BME280;4351;51.422;6.794;2023-01-26T01:11:22;101065.34;;;-0.14;100.00
8627;BME280;4351;51.422;6.794;2023-01-26T01:13:50;101062.66;;;-0.10;100.00
8627;BME280;4351;51.422;6.794;2023-01-26T01:16:19;101076.03;;;-0.20;100.00
8627;BME280;4351;51.422;6.794;2023-01-26T01:18:47;101067.97;;;-0.10;100.00
8627;BME280;4351;51.422;6.794;2023-01-26T01:21:16;101061.72;;;-0.06;100.00
8627;BME280;4351;51.422;6.794;2023-01-26T01:23:44;101054.69;;;-0.10;100.00
8627;BME280;4351;51.422;6.794;2023-01-26T01:26:13;101049.28;;;0.02;100.00
8627;BME280;4351;51.422;6.794;2023-01-26T01:28:43;101048.50;;;-0.09;100.00
8627;BME280;4351;51.422;6.794;2023-01-26T01:31:13;101068.25;;;-0.39;100.00
8627;BME280;4351;51.422;6.794;2023-01-26T01:33:41;101067.16;;;-0.19;100.00
8627;BME280;4351;51.422;6.794;2023-01-26T01:36:14;101056.56;;;-0.19;100.00
8627;BME280;4351;51.422;6.794;2023-01-26T01:38:44;101059.41;;;-0.39;100.00
8627;BME280;4351;51.422;6.794;2023-01-26T01:41:13;101069.16;;;-0.43;100.00
8627;BME280;4351;51.422;6.794;2023-01-26T01:43:43;101056.66;;;-0.30;100.00
8627;BME280;4351;51.422;6.794;2023-01-26T01:46:19;101060.13;;;-0.20;100.00
8627;BME280;4351;51.422;6.794;2023-01-26T01:48:51;101065.56;;;-0.34;100.00
8627;BME280;4351;51.422;6.794;2023-01-26T01:51:27;101069.16;;;-0.43;100.00
8627;BME280;4351;51.422;6.794;2023-01-26T01:53:58;101053.03;;;-0.21;100.00
8627;BME280;4351;51.422;6.794;2023-01-26T01:56:31;101052.25;;;-0.32;100.00
8627;BME280;4351;51.422;6.794;2023-01-26T01:59:03;101047.63;;;-0.10;100.00
8627;BME280;4351;51.422;6.794;2023-01-26T02:01:32;101045.03;;;-0.15;100.00
8627;BME280;4351;51.422;6.794;2023-01-26T02:04:03;101045.16;;;-0.27;100.00
8627;BME280;4351;51.422;6.794;2023-01-26T02:06:41;101039.78;;;-0.21;100.00
8627;BME280;4351;51.422;6.794;2023-01-26T02:09:12;101037.13;;;-0.18;100.00
8627;BME280;4351;51.422;6.794;2023-01-26T02:12:01;101039.66;;;-0.10;100.00
8627;BME280;4351;51.422;6.794;2023-01-26T02:14:31;101031.66;;;-0.05;100.00
8627;BME280;4351;51.422;6.794;2023-01-26T02:17:00;101033.63;;;-0.23;100.00
8627;BME280;4351;51.422;6.794;2023-01-26T02:19:34;101029.19;;;-0.24;100.00
8627;BME280;4351;51.422;6.794;2023-01-26T02:22:07;101029.16;;;-0.19;100.00
8627;BME280;4351;51.422;6.794;2023-01-26T02:24:38;101041.75;;;-0.40;100.00
8627;BME280;4351;51.422;6.794;2023-01-26T02:27:08;101022.06;;;-0.17;100.00
8627;BME280;4351;51.422;6.794;2023-01-26T02:29:36;101029.09;;;-0.15;100.00
8627;BME280;4351;51.422;6.794;2023-01-26T02:32:05;101027.44;;;-0.24;100.00
8627;BME280;4351;51.422;6.794;2023-01-26T02:34:33;101018.53;;;-0.19;100.00
8627;BME280;4351;51.422;6.794;2023-01-26T02:37:01;101025.56;;;-0.15;100.00
8627;BME280;4351;51.422;6.794;2023-01-26T02:39:39;101022.06;;;-0.16;100.00
8627;BME280;4351;51.422;6.794;2023-01-26T02:42:12;101014.84;;;-0.03;100.00
8627;BME280;4351;51.422;6.794;2023-01-26T02:44:58;101022.88;;;-0.09;100.00
8627;BME280;4351;51.422;6.794;2023-01-26T02:47:28;101020.25;;;-0.12;100.00
8627;BME280;4351;51.422;6.794;2023-01-26T02:49:56;101019.19;;;0.02;100.00
8627;BME280;4351;51.422;6.794;2023-01-26T02:52:27;101023.81;;;-0.16;100.00
8627;BME280;4351;51.422;6.794;2023-01-26T02:55:00;101024.53;;;0.00;100.00
8627;BME280;4351;51.422;6.794;2023-01-26T02:57:48;101002.44;;;-0.04;100.00
8627;BME280;4351;51.422;6.794;2023-01-26T03:00:17;100996.13;;;0.08;100.00
8627;BME280;4351;51.422;6.794;2023-01-26T03:02:48;100987.41;;;-0.03;100.00
8627;BME280;4351;51.422;6.794;2023-01-26T03:05:18;100992.59;;;0.08;100.00
8627;BME280;4351;51.422;6.794;2023-01-26T03:07:46;100990.19;;;-0.11;100.00
8627;BME280;4351;51.422;6.794;2023-01-26T03:10:14;101000.91;;;-0.22;100.00
8627;BME280;4351;51.422;6.794;2023-01-26T03:12:44;100998.06;;;-0.06;100.00
8627;BME280;4351;51.422;6.794;2023-01-26T03:15:14;100996.22;;;0.01;100.00
8627;BME280;4351;51.422;6.794;2023-01-26T03:18:03;100999.03;;;-0.15;100.00
8627;BME280;4351;51.422;6.794;2023-01-26T03:20:49;100998.84;;;0.04;100.00
8627;BME280;4351;51.422;6.794;2023-01-26T03:23:34;100989.22;;;-0.08;100.00
8627;BME280;4351;51.422;6.794;2023-01-26T03:26:21;100996.22;;;-0.01;100.00
8627;BME280;4351;51.422;6.794;2023-01-26T03:29:07;101006.88;;;-0.04;100.00
8627;BME280;4351;51.422;6.794;2023-01-26T03:31:38;100996.22;;;-0.01;100.00
8627;BME280;4351;51.422;6.794;2023-01-26T03:34:06;101002.47;;;-0.05;100.00
8627;BME280;4351;51.422;6.794;2023-01-26T03:36:34;101008.59;;;0.02;100.00
8627;BME280;4351;51.422;6.794;2023-01-26T03:39:08;101007.72;;;-0.02;100.00
8627;BME280;4351;51.422;6.794;2023-01-26T03:41:56;101000.66;;;-0.02;100.00
8627;BME280;4351;51.422;6.794;2023-01-26T03:44:41;100996.06;;;0.11;100.00
8627;BME280;4351;51.422;6.794;2023-01-26T03:47:30;101003.09;;;0.17;100.00
8627;BME280;4351;51.422;6.794;2023-01-26T03:50:16;100995.13;;;0.16;100.00
8627;BME280;4351;51.422;6.794;2023-01-26T03:53:01;100987.03;;;0.28;100.00
8627;BME280;4351;51.422;6.794;2023-01-26T03:55:46;100996.97;;;0.09;100.00
8627;BME280;4351;51.422;6.794;2023-01-26T03:58:32;100990.91;;;0.02;100.00
8627;BME280;4351;51.422;6.794;2023-01-26T04:01:00;100989.03;;;0.10;100.00
8627;BME280;4351;51.422;6.794;2023-01-26T04:03:30;100986.31;;;0.14;100.00
8627;BME280;4351;51.422;6.794;2023-01-26T04:06:15;100988.84;;;0.23;100.00
8627;BME280;4351;51.422;6.794;2023-01-26T04:09:01;100980.28;;;0.02;100.00
8627;BME280;4351;51.422;6.794;2023-01-26T04:11:29;100980.28;;;0.02;100.00
8627;BME280;4351;51.422;6.794;2023-01-26T04:13:57;100976.47;;;0.24;100.00
8627;BME280;4351;51.422;6.794;2023-01-26T04:16:43;100973.00;;;0.18;100.00
8627;BME280;4351;51.422;6.794;2023-01-26T04:19:30;100976.53;;;0.19;100.00
8627;BME280;4351;51.422;6.794;2023-01-26T04:22:16;100972.19;;;0.13;100.00
8627;BME280;4351;51.422;6.794;2023-01-26T04:24:46;100973.97;;;0.11;100.00
8627;BME280;4351;51.422;6.794;2023-01-26T04:27:14;100973.19;;;0.04;100.00
8627;BME280;4351;51.422;6.794;2023-01-26T04:29:42;100968.59;;;0.17;100.00
8627;BME280;4351;51.422;6.794;2023-01-26T04:32:10;100965.94;;;0.17;100.00
8627;BME280;4351;51.422;6.794;2023-01-26T04:34:41;100977.63;;;0.02;100.00
8627;BME280;4351;51.422;6.794;2023-01-26T04:37:17;100971.13;;;0.25;100.00
8627;BME280;4351;51.422;6.794;2023-01-26T04:39:46;100965.13;;;0.12;100.00
8627;BME280;4351;51.422;6.794;2023-01-26T04:42:16;100970.44;;;0.10;100.00
8627;BME280;4351;51.422;6.794;2023-01-26T04:44:44;100971.31;;;0.13;100.00
8627;BME280;4351;51.422;6.794;2023-01-26T04:47:13;100965.00;;;0.20;100.00
8627;BME280;4351;51.422;6.794;2023-01-26T04:49:43;100963.06;;;0.31;100.00
8627;BME280;4351;51.422;6.794;2023-01-26T04:52:16;100961.34;;;0.29;100.00
8627;BME280;4351;51.422;6.794;2023-01-26T04:54:44;100950.81;;;0.24;100.00
8627;BME280;4351;51.422;6.794;2023-01-26T04:57:12;100959.69;;;0.21;100.00
8627;BME280;4351;51.422;6.794;2023-01-26T04:59:44;100959.53;;;0.31;100.00
8627;BME280;4351;51.422;6.794;2023-01-26T05:02:13;100962.31;;;0.23;100.00
8627;BME280;4351;51.422;6.794;2023-01-26T05:04:42;100965.84;;;0.22;100.00
8627;BME280;4351;51.422;6.794;2023-01-26T05:07:11;100959.69;;;0.21;100.00
8627;BME280;4351;51.422;6.794;2023-01-26T05:09:39;100962.44;;;0.14;100.00
8627;BME280;4351;51.422;6.794;2023-01-26T05:12:26;100963.28;;;0.16;100.00
8627;BME280;4351;51.422;6.794;2023-01-26T05:15:19;100948.16;;;0.22;100.00
8627;BME280;4351;51.422;6.794;2023-01-26T05:17:57;100943.78;;;0.18;100.00
8627;BME280;4351;51.422;6.794;2023-01-26T05:20:36;100948.97;;;0.28;100.00
8627;BME280;4351;51.422;6.794;2023-01-26T05:23:14;100943.75;;;0.20;100.00
8627;BME280;4351;51.422;6.794;2023-01-26T05:26:01;100943.88;;;0.12;100.00
8627;BME280;4351;51.422;6.794;2023-01-26T05:28:35;100946.28;;;0.32;100.00
8627;BME280;4351;51.422;6.794;2023-01-26T05:31:04;100950.00;;;0.19;100.00
8627;BME280;4351;51.422;6.794;2023-01-26T05:33:32;100949.94;;;0.22;100.00
8627;BME280;4351;51.422;6.794;2023-01-26T05:36:05;100955.25;;;0.22;100.00
8627;BME280;4351;51.422;6.794;2023-01-26T05:38:34;100954.63;;;0.04;100.00
8627;BME280;4351;51.422;6.794;2023-01-26T05:41:02;100958.78;;;0.24;100.00
8627;BME280;4351;51.422;6.794;2023-01-26T05:43:40;100956.97;;;0.26;100.00
8627;BME280;4351;51.422;6.794;2023-01-26T05:46:28;100956.13;;;0.22;100.00
8627;BME280;4351;51.422;6.794;2023-01-26T05:48:56;100951.34;;;0.48;100.00
8627;BME280;4351;51.422;6.794;2023-01-26T05:51:26;100951.78;;;0.17;100.00
8627;BME280;4351;51.422;6.794;2023-01-26T05:53:54;100951.66;;;0.26;100.00
8627;BME280;4351;51.422;6.794;2023-01-26T05:56:23;100953.59;;;0.15;100.00
8627;BME280;4351;51.422;6.794;2023-01-26T05:58:57;100944.72;;;0.16;100.00
8627;BME280;4351;51.422;6.794;2023-01-26T06:01:25;100940.84;;;0.40;100.00
8627;BME280;4351;51.422;6.794;2023-01-26T06:03:58;100940.13;;;0.27;100.00
8627;BME280;4351;51.422;6.794;2023-01-26T06:06:35;100940.09;;;0.30;100.00
8627;BME280;4351;51.422;6.794;2023-01-26T06:09:35;100942.94;;;0.16;100.00
8627;BME280;4351;51.422;6.794;2023-01-26T06:12:22;100944.56;;;0.28;100.00
8627;BME280;4351;51.422;6.794;2023-01-26T06:14:50;100941.97;;;0.22;100.00
8627;BME280;4351;51.422;6.794;2023-01-26T06:17:18;100950.81;;;0.24;100.00
8627;BME280;4351;51.422;6.794;2023-01-26T06:19:51;100945.41;;;0.30;100.00
8627;BME280;4351;51.422;6.794;2023-01-26T06:22:21;100937.44;;;0.30;100.00
8627;BME280;4351;51.422;6.794;2023-01-26T06:24:50;100937.38;;;0.33;100.00
8627;BME280;4351;51.422;6.794;2023-01-26T06:27:19;100914.13;;;0.51;100.00
8627;BME280;4351;51.422;6.794;2023-01-26T06:29:49;100912.44;;;0.44;100.00
8627;BME280;4351;51.422;6.794;2023-01-26T06:32:17;100918.66;;;0.44;100.00
8627;BME280;4351;51.422;6.794;2023-01-26T06:34:50;100915.13;;;0.42;100.00
8627;BME280;4351;51.422;6.794;2023-01-26T06:37:22;100915.19;;;0.39;100.00
8627;BME280;4351;51.422;6.794;2023-01-26T06:39:51;100915.09;;;0.45;100.00
8627;BME280;4351;51.422;6.794;2023-01-26T06:42:19;100921.69;;;0.18;100.00
8627;BME280;4351;51.422;6.794;2023-01-26T06:44:47;100928.53;;;0.34;100.00
8627;BME280;4351;51.422;6.794;2023-01-26T06:47:15;100935.66;;;0.32;100.00
8627;BME280;4351;51.422;6.794;2023-01-26T06:49:44;100931.22;;;0.31;100.00
8627;BME280;4351;51.422;6.794;2023-01-26T06:52:30;100923.16;;;0.38;100.00
8627;BME280;4351;51.422;6.794;2023-01-26T06:55:15;100923.16;;;0.38;100.00
8627;BME280;4351;51.422;6.794;2023-01-26T06:57:50;100930.38;;;0.29;100.00
8627;BME280;4351;51.422;6.794;2023-01-26T07:00:36;100918.72;;;0.40;100.00
8627;BME280;4351;51.422;6.794;2023-01-26T07:03:24;100927.53;;;0.42;100.00
8627;BME280;4351;51.422;6.794;2023-01-26T07:05:52;100919.41;;;0.54;100.00
8627;BME280;4351;51.422;6.794;2023-01-26T07:08:21;100923.03;;;0.47;100.00
8627;BME280;4351;51.422;6.794;2023-01-26T07:10:49;100922.22;;;0.42;100.00
8627;BME280;4351;51.422;6.794;2023-01-26T07:13:18;100923.94;;;0.44;100.00
8627;BME280;4351;51.422;6.794;2023-01-26T07:15:46;100929.31;;;0.40;100.00
8627;BME280;4351;51.422;6.794;2023-01-26T07:18:14;100924.06;;;0.38;100.00
8627;BME280;4351;51.422;6.794;2023-01-26T07:20:42;100929.47;;;0.32;100.00
8627;BME280;4351;51.422;6.794;2023-01-26T07:23:10;100917.75;;;0.44;100.00
8627;BME280;4351;51.422;6.794;2023-01-26T07:25:43;100914.41;;;0.31;100.00
8627;BME280;4351;51.422;6.794;2023-01-26T07:28:11;100919.53;;;0.45;100.00
8627;BME280;4351;51.422;6.794;2023-01-26T07:30:39;100932.88;;;0.40;100.00
8627;BME280;4351;51.422;6.794;2023-01-26T07:33:07;100931.84;;;0.49;100.00
8627;BME280;4351;51.422;6.794;2023-01-26T07:35:35;100924.69;;;0.56;100.00
8627;BME280;4351;51.422;6.794;2023-01-26T07:38:04;100925.63;;;0.52;100.00
8627;BME280;4351;51.422;6.794;2023-01-26T07:40:32;100923.84;;;0.51;100.00
8627;BME280;4351;51.422;6.794;2023-01-26T07:43:02;100919.44;;;0.51;100.00
8627;BME280;4351;51.422;6.794;2023-01-26T07:45:46;100924.84;;;0.45;100.00
8627;BME280;4351;51.422;6.794;2023-01-26T07:48:17;100909.53;;;0.63;100.00
8627;BME280;4351;51.422;6.794;2023-01-26T07:50:45;100913.22;;;0.52;100.00
8627;BME280;4351;51.422;6.794;2023-01-26T07:53:14;100910.38;;;0.65;100.00
8627;BME280;4351;51.422;6.794;2023-01-26T07:55:45;100916.81;;;0.50;100.00
8627;BME280;4351;51.422;6.794;2023-01-26T07:58:15;100906.97;;;0.56;100.00
8627;BME280;4351;51.422;6.794;2023-01-26T08:00:44;100914.13;;;0.51;100.00
8627;BME280;4351;51.422;6.794;2023-01-26T08:03:13;100905.06;;;0.65;100.00
8627;BME280;4351;51.422;6.794;2023-01-26T08:05:41;100900.41;;;0.78;100.00
8627;BME280;4351;51.422;6.794;2023-01-26T08:08:10;100906.78;;;0.66;100.00
8627;BME280;4351;51.422;6.794;2023-01-26T08:10:38;100901.34;;;0.75;100.00
8627;BME280;4351;51.422;6.794;2023-01-26T08:13:06;100910.38;;;0.65;100.00
8627;BME280;4351;51.422;6.794;2023-01-26T08:15:35;100883.34;;;0.93;100.00
8627;BME280;4351;51.422;6.794;2023-01-26T08:18:03;100896.03;;;0.75;100.00
8627;BME280;4351;51.422;6.794;2023-01-26T08:20:32;100894.03;;;0.88;100.00
8627;BME280;4351;51.422;6.794;2023-01-26T08:23:00;100899.34;;;0.90;100.00
8627;BME280;4351;51.422;6.794;2023-01-26T08:25:28;100889.88;;;0.73;100.00
8627;BME280;4351;51.422;6.794;2023-01-26T08:27:58;100883.53;;;0.82;100.00
8627;BME280;4351;51.422;6.794;2023-01-26T08:30:26;100881.63;;;0.89;100.00
8627;BME280;4351;51.422;6.794;2023-01-26T08:32:56;100880.75;;;0.90;100.00
8627;BME280;4351;51.422;6.794;2023-01-26T08:35:24;100882.47;;;0.91;100.00
8627;BME280;4351;51.422;6.794;2023-01-26T08:37:52;100878.09;;;0.90;100.00
8627;BME280;4351;51.422;6.794;2023-01-26T08:40:20;100874.41;;;0.97;100.00
8627;BME280;4351;51.422;6.794;2023-01-26T08:42:50;100873.59;;;0.94;100.00
8627;BME280;4351;51.422;6.794;2023-01-26T08:45:19;100873.66;;;0.89;100.00
8627;BME280;4351;51.422;6.794;2023-01-26T08:47:48;100862.16;;;0.88;100.00
8627;BME280;4351;51.422;6.794;2023-01-26T08:50:18;100865.66;;;0.92;100.00
8627;BME280;4351;51.422;6.794;2023-01-26T08:52:46;100870.03;;;0.93;100.00
8627;BME280;4351;51.422;6.794;2023-01-26T08:55:14;100861.94;;;1.01;100.00
8627;BME280;4351;51.422;6.794;2023-01-26T08:57:42;100866.53;;;0.91;100.00
8627;BME280;4351;51.422;6.794;2023-01-26T09:00:12;100860.38;;;0.89;100.00
8627;BME280;4351;51.422;6.794;2023-01-26T09:02:40;100855.03;;;0.92;100.00
8627;BME280;4351;51.422;6.794;2023-01-26T09:05:08;100854.84;;;1.01;100.00
8627;BME280;4351;51.422;6.794;2023-01-26T09:07:38;100858.34;;;1.03;100.00
8627;BME280;4351;51.422;6.794;2023-01-26T09:10:07;100851.31;;;0.99;100.00
8627;BME280;4351;51.422;6.794;2023-01-26T09:12:36;100850.28;;;1.08;100.00
8627;BME280;4351;51.422;6.794;2023-01-26T09:15:07;100836.22;;;1.03;100.00
8627;BME280;4351;51.422;6.794;2023-01-26T09:17:36;100838.97;;;0.98;100.00
8627;BME280;4351;51.422;6.794;2023-01-26T09:20:05;100840.91;;;0.90;100.00
8627;BME280;4351;51.422;6.794;2023-01-26T09:22:34;100828.19;;;1.06;100.00
8627;BME280;4351;51.422;6.794;2023-01-26T09:25:04;100820.00;;;1.17;100.00
8627;BME280;4351;51.422;6.794;2023-01-26T09:27:32;100812.19;;;1.08;100.00
8627;BME280;4351;51.422;6.794;2023-01-26T09:30:00;100814.25;;;0.93;100.00
8627;BME280;4351;51.422;6.794;2023-01-26T09:32:28;100818.00;;;0.83;100.00
8627;BME280;4351;51.422;6.794;2023-01-26T09:34:56;100800.72;;;1.06;100.00
8627;BME280;4351;51.422;6.794;2023-01-26T09:37:25;100801.63;;;1.05;100.00
8627;BME280;4351;51.422;6.794;2023-01-26T09:39:53;100800.25;;;0.85;100.00
8627;BME280;4351;51.422;6.794;2023-01-26T09:42:33;100789.38;;;0.97;100.00
8627;BME280;4351;51.422;6.794;2023-01-26T09:45:19;100785.75;;;1.01;100.00
8627;BME280;4351;51.422;6.794;2023-01-26T09:47:57;100791.91;;;1.03;100.00
8627;BME280;4351;51.422;6.794;2023-01-26T09:50:33;100782.03;;;1.10;100.00
8627;BME280;4351;51.422;6.794;2023-01-26T09:53:09;100767.81;;;1.13;100.00
8627;BME280;4351;51.422;6.794;2023-01-26T09:55:39;100768.44;;;1.26;100.00
8627;BME280;4351;51.422;6.794;2023-01-26T09:58:13;100756.25;;;1.16;100.00
8627;BME280;4351;51.422;6.794;2023-01-26T10:00:45;100762.34;;;1.19;100.00
8627;BME280;4351;51.422;6.794;2023-01-26T10:03:21;100748.09;;;1.23;100.00
8627;BME280;4351;51.422;6.794;2023-01-26T10:05:56;100745.53;;;1.20;100.00
8627;BME280;4351;51.422;6.794;2023-01-26T10:08:44;100736.47;;;1.29;100.00
8627;BME280;4351;51.422;6.794;2023-01-26T10:11:16;100732.09;;;1.26;100.00
8627;BME280;4351;51.422;6.794;2023-01-26T10:13:51;100724.97;;;1.29;100.00
8627;BME280;4351;51.422;6.794;2023-01-26T10:16:22;100730.19;;;1.32;100.00
8627;BME280;4351;51.422;6.794;2023-01-26T10:18:56;100720.34;;;1.37;100.00
8627;BME280;4351;51.422;6.794;2023-01-26T10:21:30;100709.84;;;1.31;100.00
8627;BME280;4351;51.422;6.794;2023-01-26T10:24:01;100705.31;;;1.36;100.00
8627;BME280;4351;51.422;6.794;2023-01-26T10:26:32;100694.53;;;1.42;100.00
8627;BME280;4351;51.422;6.794;2023-01-26T10:29:02;100696.34;;;1.40;100.00
8627;BME280;4351;51.422;6.794;2023-01-26T10:31:33;100680.16;;;1.49;100.00
8627;BME280;4351;51.422;6.794;2023-01-26T10:34:12;100680.41;;;1.40;100.00
8627;BME280;4351;51.422;6.794;2023-01-26T10:36:43;100674.09;;;1.43;100.00
8627;BME280;4351;51.422;6.794;2023-01-26T10:39:14;100664.44;;;1.40;100.00
8627;BME280;4351;51.422;6.794;2023-01-26T10:41:57;100648.97;;;1.56;100.00
8627;BME280;4351;51.422;6.794;2023-01-26T10:44:33;100648.81;;;1.63;100.00
8627;BME280;4351;51.422;6.794;2023-01-26T10:47:12;100640.91;;;1.61;100.00
8627;BME280;4351;51.422;6.794;2023-01-26T10:49:44;100640.38;;;1.45;100.00
8627;BME280;4351;51.422;6.794;2023-01-26T10:52:17;100632.88;;;1.63;100.00
8627;BME280;4351;51.422;6.794;2023-01-26T10:54:48;100640.78;;;1.66;100.00
8627;BME280;4351;51.422;6.794;2023-01-26T10:57:21;100644.44;;;1.62;100.00
8627;BME280;4351;51.422;6.794;2023-01-26T10:59:56;100637.41;;;1.59;100.00
8627;BME280;4351;51.422;6.794;2023-01-26T11:02:27;100615.75;;;1.75;100.00
8627;BME280;4351;51.422;6.794;2023-01-26T11:05:18;100619.56;;;1.64;100.00
8627;BME280;4351;51.422;6.794;2023-01-26T11:07:48;100611.84;;;1.53;100.00
8627;BME280;4351;51.422;6.794;2023-01-26T11:10:23;100604.22;;;1.74;100.00
8627;BME280;4351;51.422;6.794;2023-01-26T11:13:21;100599.06;;;1.68;100.00
8627;BME280;4351;51.422;6.794;2023-01-26T11:16:02;100599.97;;;1.67;100.00
8627;BME280;4351;51.422;6.794;2023-01-26T11:18:40;100605.28;;;1.67;100.00
8627;BME280;4351;51.422;6.794;2023-01-26T11:21:15;100595.56;;;1.66;100.00
8627;BME280;4351;51.422;6.794;2023-01-26T11:23:57;100585.66;;;1.72;100.00
8627;BME280;4351;51.422;6.794;2023-01-26T11:26:53;100586.72;;;1.65;100.00
8627;BME280;4351;51.422;6.794;2023-01-26T11:29:36;100591.41;;;1.54;100.00
8627;BME280;4351;51.422;6.794;2023-01-26T11:32:16;100586.59;;;1.70;100.00
8627;BME280;4351;51.422;6.794;2023-01-26T11:35:01;100585.81;;;1.66;100.00
8627;BME280;4351;51.422;6.794;2023-01-26T11:37:38;100585.72;;;1.69;100.00
8627;BME280;4351;51.422;6.794;2023-01-26T11:43:29;100571.84;;;1.58;100.00
8627;BME280;4351;51.422;6.794;2023-01-26T11:46:11;100562.50;;;1.76;100.00
8627;BME280;4351;51.422;6.794;2023-01-26T11:48:51;100560.16;;;1.64;100.00
8627;BME280;4351;51.422;6.794;2023-01-26T11:51:36;100548.94;;;1.86;100.00
8627;BME280;4351;51.422;6.794;2023-01-26T11:54:19;100546.66;;;1.71;100.00
8627;BME280;4351;51.422;6.794;2023-01-26T11:56:55;100531.31;;;1.81;100.00
8627;BME280;4351;51.422;6.794;2023-01-26T11:59:33;100511.66;;;1.87;100.00
8627;BME280;4351;51.422;6.794;2023-01-26T12:02:05;100499.06;;;1.94;100.00
8627;BME280;4351;51.422;6.794;2023-01-26T12:04:45;100486.50;;;1.98;100.00
8627;BME280;4351;51.422;6.794;2023-01-26T12:07:18;100482.13;;;1.97;100.00
8627;BME280;4351;51.422;6.794;2023-01-26T12:09:49;100461.34;;;2.10;100.00
8627;BME280;4351;51.422;6.794;2023-01-26T12:12:24;100451.94;;;2.28;100.00
8627;BME280;4351;51.422;6.794;2023-01-26T12:14:58;100453.59;;;2.02;100.00
8627;BME280;4351;51.422;6.794;2023-01-26T12:17:42;100446.53;;;2.01;100.00
8627;BME280;4351;51.422;6.794;2023-01-26T12:20:25;100435.28;;;1.91;100.00
8627;BME280;4351;51.422;6.794;2023-01-26T12:23:01;100427.84;;;2.02;100.00
8627;BME280;4351;51.422;6.794;2023-01-26T12:25:32;100427.75;;;2.05;100.00
8627;BME280;4351;51.422;6.794;2023-01-26T12:28:11;100414.78;;;1.94;100.00
8627;BME280;4351;51.422;6.794;2023-01-26T12:30:49;100411.59;;;2.12;100.00
8627;BME280;4351;51.422;6.794;2023-01-26T12:33:19;100388.88;;;2.30;100.00
8627;BME280;4351;51.422;6.794;2023-01-26T12:38:54;100379.03;;;2.03;100.00
8627;BME280;4351;51.422;6.794;2023-01-26T12:41:34;100377.41;;;1.98;100.00
8627;BME280;4351;51.422;6.794;2023-01-26T12:44:16;100371.75;;;2.10;100.00
8627;BME280;4351;51.422;6.794;2023-01-26T12:46:51;100376.88;;;2.16;100.00
8627;BME280;4351;51.422;6.794;2023-01-26T12:49:25;100377.00;;;2.12;100.00
8627;BME280;4351;51.422;6.794;2023-01-26T12:52:05;100368.59;;;2.26;100.00
8627;BME280;4351;51.422;6.794;2023-01-26T12:54:39;100358.84;;;2.25;100.00
8627;BME280;4351;51.422;6.794;2023-01-26T12:57:12;100359.19;;;2.43;100.00
8627;BME280;4351;51.422;6.794;2023-01-26T12:59:43;100359.34;;;2.38;100.00
8627;BME280;4351;51.422;6.794;2023-01-26T13:02:23;100354.13;;;2.35;100.00
8627;BME280;4351;51.422;6.794;2023-01-26T13:04:52;100366.22;;;2.16;100.00
8627;BME280;4351;51.422;6.794;2023-01-26T13:07:31;100353.25;;;2.34;100.00
8627;BME280;4351;51.422;6.794;2023-01-26T13:10:09;100353.44;;;2.28;100.00
8627;BME280;4351;51.422;6.794;2023-01-26T13:12:48;100352.78;;;2.21;100.00
8627;BME280;4351;51.422;6.794;2023-01-26T13:15:18;100351.81;;;2.24;100.00
8627;BME280;4351;51.422;6.794;2023-01-26T13:17:55;100345.13;;;2.37;100.00
8627;BME280;4351;51.422;6.794;2023-01-26T13:20:41;100349.16;;;2.22;100.00
8627;BME280;4351;51.422;6.794;2023-01-26T13:23:39;100329.69;;;2.49;100.00
8627;BME280;4351;51.422;6.794;2023-01-26T13:26:20;100343.41;;;2.36;100.00
8627;BME280;4351;51.422;6.794;2023-01-26T13:28:51;100340.97;;;2.30;100.00
8627;BME280;4351;51.422;6.794;2023-01-26T13:31:31;100330.50;;;2.24;100.00
8627;BME280;4351;51.422;6.794;2023-01-26T13:34:02;100332.16;;;2.28;100.00
8627;BME280;4351;51.422;6.794;2023-01-26T13:36:35;100333.06;;;2.27;100.00
8627;BME280;4351;51.422;6.794;2023-01-26T13:39:13;100330.41;;;2.27;100.00
8627;BME280;4351;51.422;6.794;2023-01-26T13:41:46;100338.38;;;2.27;100.00
8627;BME280;4351;51.422;6.794;2023-01-26T13:44:18;100323.91;;;2.36;100.00
8627;BME280;4351;51.422;6.794;2023-01-26T13:46:52;100316.00;;;2.33;100.00